Time;durP1;ratioP1;P1;durP2;ratioP2;P2;SDS_P1;SDS_P2;PMS_P1;PMS_P2;Temp;Humidity;BMP_temperature;BMP_pressure;BME280_temperature;BME280_humidity;BME280_pressure;Samples;Min_cycle;Max_cycle;Signal;HPM_P1;HPM_P2
2022/11/11 00:01:01;;;;;;;0.57;0.35;;;;;;;;;;1882035;75;27302;-57
2022/11/11 00:03:28;;;;;;;0.30;0.30;;;;;;;;;;1872136;76;26714;-58
2022/11/11 00:05:57;;;;;;;0.45;0.45;;;;;;;;;;1892603;76;26295;-57
2022/11/11 00:08:24;;;;;;;0.37;0.37;;;;;;;;;;1882924;76;26214;-57
2022/11/11 00:10:51;;;;;;;0.20;0.20;;;;;;;;;;1887965;74;26253;-56
2022/11/11 00:13:18;;;;;;;0.50;0.50;;;;;;;;;;1884188;74;26270;-57
2022/11/11 00:15:46;;;;;;;0.30;0.30;;;;;;;;;;1888878;74;26277;-57
2022/11/11 00:26:30;;;;;;;0.23;0.23;;;;;;;;;;1884211;76;26506;-58
2022/11/11 00:28:57;;;;;;;0.30;0.30;;;;;;;;;;1882019;76;26189;-58
2022/11/11 00:31:24;;;;;;;0.40;0.40;;;;;;;;;;1876928;76;26242;-57
2022/11/11 00:33:53;;;;;;;0.30;0.30;;;;;;;;;;1889208;76;26142;-57
2022/11/11 00:36:20;;;;;;;0.30;0.30;;;;;;;;;;1885066;76;26245;-58
2022/11/11 00:38:48;;;;;;;0.30;0.30;;;;;;;;;;1893700;76;26293;-58
2022/11/11 00:41:19;;;;;;;0.40;0.40;;;;;;;;;;1892607;76;26940;-57
2022/11/11 00:43:47;;;;;;;0.30;0.30;;;;;;;;;;1877385;76;26229;-57
2022/11/11 00:51:47;;;;;;;0.35;0.20;;;;;;;;;;1881347;76;25816;-59
2022/11/11 00:54:14;;;;;;;0.30;0.30;;;;;;;;;;1880345;76;26228;-59
2022/11/11 00:56:41;;;;;;;0.40;0.40;;;;;;;;;;1882036;76;26215;-59
2022/11/11 00:59:09;;;;;;;0.30;0.30;;;;;;;;;;1884632;76;26674;-58
2022/11/11 01:01:37;;;;;;;0.45;0.45;;;;;;;;;;1890841;75;26288;-58
2022/11/11 01:04:05;;;;;;;0.40;0.40;;;;;;;;;;1867577;76;26234;-57
2022/11/11 01:06:32;;;;;;;0.30;0.30;;;;;;;;;;1880890;76;26279;-56
2022/11/11 01:09:01;;;;;;;0.30;0.30;;;;;;;;;;1871526;76;26314;-56
2022/11/11 01:11:28;;;;;;;0.15;0.15;;;;;;;;;;1893382;75;26163;-56
2022/11/11 01:13:55;;;;;;;0.30;0.30;;;;;;;;;;1892950;76;26275;-57
2022/11/11 01:16:25;;;;;;;0.25;0.25;;;;;;;;;;1891740;76;27223;-57
2022/11/11 01:18:53;;;;;;;0.20;0.20;;;;;;;;;;1887039;76;26714;-57
2022/11/11 01:21:21;;;;;;;0.33;0.33;;;;;;;;;;1879189;76;26194;-58
2022/11/11 01:23:49;;;;;;;0.35;0.35;;;;;;;;;;1895043;75;26166;-58
2022/11/11 01:26:17;;;;;;;0.20;0.20;;;;;;;;;;1880491;76;26603;-56
2022/11/11 01:28:46;;;;;;;0.53;0.30;;;;;;;;;;1879146;76;26199;-57
2022/11/11 01:31:14;;;;;;;0.30;0.30;;;;;;;;;;1873399;75;26273;-58
2022/11/11 01:33:42;;;;;;;0.30;0.30;;;;;;;;;;1872031;76;26281;-57
2022/11/11 01:36:11;;;;;;;0.23;0.23;;;;;;;;;;1886566;76;26287;-57
2022/11/11 01:38:39;;;;;;;0.20;0.20;;;;;;;;;;1882693;76;26280;-57
2022/11/11 01:43:52;;;;;;;0.13;0.13;;;;;;;;;;1878166;75;26225;-56
2022/11/11 01:46:27;;;;;;;0.30;0.30;;;;;;;;;;1890022;75;26282;-56
2022/11/11 01:51:46;;;;;;;0.10;0.10;;;;;;;;;;1870686;76;26300;-56
2022/11/11 01:54:17;;;;;;;0.30;0.30;;;;;;;;;;1858364;76;26213;-56
2022/11/11 01:56:46;;;;;;;0.35;0.35;;;;;;;;;;1872203;76;26249;-58
2022/11/11 01:59:16;;;;;;;0.30;0.30;;;;;;;;;;1886056;74;26300;-59
2022/11/11 02:01:44;;;;;;;0.30;0.30;;;;;;;;;;1889531;76;26330;-53
2022/11/11 02:06:58;;;;;;;0.62;0.20;;;;;;;;;;1888370;76;26222;-57
2022/11/11 02:09:26;;;;;;;0.28;0.28;;;;;;;;;;1892178;76;26201;-56
2022/11/11 02:14:42;;;;;;;0.20;0.20;;;;;;;;;;1883071;75;26236;-58
2022/11/11 02:17:12;;;;;;;0.30;0.30;;;;;;;;;;1884304;76;26239;-58
2022/11/11 02:20:00;;;;;;;0.23;0.23;;;;;;;;;;1881927;76;26225;-58
2022/11/11 02:22:32;;;;;;;0.10;0.10;;;;;;;;;;1875887;75;26265;-58
2022/11/11 02:25:00;;;;;;;0.28;0.28;;;;;;;;;;1891869;75;26257;-58
2022/11/11 02:27:29;;;;;;;0.10;0.10;;;;;;;;;;1887485;76;26263;-58
2022/11/11 02:29:57;;;;;;;0.10;0.10;;;;;;;;;;1880566;76;27083;-58
2022/11/11 02:32:24;;;;;;;0.20;0.20;;;;;;;;;;1894580;75;26194;-58
2022/11/11 02:34:52;;;;;;;0.20;0.20;;;;;;;;;;1894006;76;26225;-57
2022/11/11 02:37:21;;;;;;;0.17;0.17;;;;;;;;;;1876809;76;26254;-58
2022/11/11 02:39:49;;;;;;;0.20;0.20;;;;;;;;;;1890706;76;26222;-57
2022/11/11 02:42:18;;;;;;;0.23;0.23;;;;;;;;;;1882309;76;26649;-57
2022/11/11 02:44:45;;;;;;;0.23;0.23;;;;;;;;;;1883520;76;26214;-57
2022/11/11 02:47:12;;;;;;;0.17;0.17;;;;;;;;;;1883825;76;26251;-57
2022/11/11 02:49:40;;;;;;;0.17;0.17;;;;;;;;;;1892435;76;26724;-57
2022/11/11 02:52:07;;;;;;;0.20;0.20;;;;;;;;;;1894300;76;26218;-57
2022/11/11 02:54:34;;;;;;;0.30;0.30;;;;;;;;;;1875825;76;26194;-57
2022/11/11 02:57:07;;;;;;;0.20;0.20;;;;;;;;;;1889974;76;26221;-57
2022/11/11 02:59:39;;;;;;;0.20;0.20;;;;;;;;;;1880956;76;26217;-58
2022/11/11 03:02:07;;;;;;;0.23;0.23;;;;;;;;;;1894191;76;26241;-57
2022/11/11 03:04:36;;;;;;;0.20;0.20;;;;;;;;;;1880461;75;26202;-58
2022/11/11 03:07:03;;;;;;;0.15;0.15;;;;;;;;;;1888680;76;26293;-57
2022/11/11 03:09:31;;;;;;;0.17;0.17;;;;;;;;;;1886323;76;26198;-58
2022/11/11 03:11:58;;;;;;;0.20;0.20;;;;;;;;;;1887962;76;26279;-57
2022/11/11 03:14:26;;;;;;;0.30;0.30;;;;;;;;;;1880503;76;26580;-57
2022/11/11 03:19:38;;;;;;;0.10;0.10;;;;;;;;;;1887030;76;25629;-57
2022/11/11 03:22:05;;;;;;;0.10;0.10;;;;;;;;;;1882632;76;26681;-57
2022/11/11 03:27:18;;;;;;;0.40;0.23;;;;;;;;;;1873618;76;26236;-57
2022/11/11 03:29:45;;;;;;;0.20;0.20;;;;;;;;;;1872049;76;26211;-55
2022/11/11 03:32:13;;;;;;;0.10;0.10;;;;;;;;;;1882360;75;26231;-56
2022/11/11 03:34:40;;;;;;;0.30;0.30;;;;;;;;;;1893530;76;26485;-56
2022/11/11 03:39:54;;;;;;;0.20;0.20;;;;;;;;;;1894194;76;26191;-57
2022/11/11 03:42:22;;;;;;;0.10;0.10;;;;;;;;;;1894463;76;26444;-57
2022/11/11 03:44:49;;;;;;;0.20;0.20;;;;;;;;;;1889108;76;26201;-57
2022/11/11 03:47:16;;;;;;;0.10;0.10;;;;;;;;;;1891876;76;26227;-57
2022/11/11 03:49:46;;;;;;;0.20;0.20;;;;;;;;;;1893455;76;26210;-57
2022/11/11 03:52:14;;;;;;;0.10;0.10;;;;;;;;;;1894343;76;26287;-58
2022/11/11 03:54:41;;;;;;;0.30;0.10;;;;;;;;;;1885972;76;26371;-57
2022/11/11 03:59:54;;;;;;;0.20;0.20;;;;;;;;;;1894074;76;26288;-57
2022/11/11 04:10:38;;;;;;;0.30;0.30;;;;;;;;;;1880894;75;26282;-58
2022/11/11 04:16:07;;;;;;;0.20;0.20;;;;;;;;;;1888375;75;26256;-58
2022/11/11 04:26:56;;;;;;;0.13;0.13;;;;;;;;;;1895183;75;26755;-57
2022/11/11 04:29:27;;;;;;;0.30;0.30;;;;;;;;;;1893429;75;26249;-58
2022/11/11 04:34:45;;;;;;;0.20;0.20;;;;;;;;;;1880272;75;26234;-58
2022/11/11 04:37:13;;;;;;;0.20;0.20;;;;;;;;;;1895473;75;27460;-59
2022/11/11 04:42:26;;;;;;;0.30;0.25;;;;;;;;;;1888638;75;26271;-58
2022/11/11 04:47:40;;;;;;;0.17;0.17;;;;;;;;;;1896197;75;26632;-56
2022/11/11 04:50:08;;;;;;;0.20;0.20;;;;;;;;;;1882658;75;26843;-59
2022/11/11 04:52:35;;;;;;;0.10;0.10;;;;;;;;;;1896546;75;26317;-58
2022/11/11 04:57:48;;;;;;;0.10;0.10;;;;;;;;;;1894375;75;26363;-58
2022/11/11 05:00:17;;;;;;;0.30;0.30;;;;;;;;;;1890792;75;26247;-58
2022/11/11 05:08:54;;;;;;;0.10;0.10;;;;;;;;;;1884693;76;26194;-58
2022/11/11 05:10:48;;;;;;;0.10;0.10;;;;;;;;;;1886668;76;26296;-58
2022/11/11 05:21:31;;;;;;;0.10;0.10;;;;;;;;;;1884354;76;26233;-58
2022/11/11 05:26:44;;;;;;;0.30;0.30;;;;;;;;;;1886794;76;26743;-59
2022/11/11 05:29:11;;;;;;;0.20;0.20;;;;;;;;;;1892804;76;26643;-58
2022/11/11 05:31:38;;;;;;;0.10;0.10;;;;;;;;;;1874647;76;27304;-58
2022/11/11 05:34:05;;;;;;;0.10;0.10;;;;;;;;;;1889806;76;26732;-59
2022/11/11 05:36:33;;;;;;;0.00;0.00;;;;;;;;;;1883221;76;26196;-59
2022/11/11 05:39:00;;;;;;;0.20;0.20;;;;;;;;;;1878464;76;26202;-59
2022/11/11 05:41:27;;;;;;;0.30;0.30;;;;;;;;;;1872893;76;26320;-56
2022/11/11 05:43:54;;;;;;;0.20;0.20;;;;;;;;;;1818986;73;26449;-59
2022/11/11 05:46:22;;;;;;;0.23;0.23;;;;;;;;;;1826069;77;27504;-58
2022/11/11 05:51:35;;;;;;;0.13;0.13;;;;;;;;;;1826863;77;26271;-59
2022/11/11 05:54:03;;;;;;;0.10;0.10;;;;;;;;;;1839343;77;26278;-58
2022/11/11 05:56:30;;;;;;;0.10;0.10;;;;;;;;;;1831500;77;26309;-58
2022/11/11 05:58:57;;;;;;;0.20;0.20;;;;;;;;;;1831639;76;26364;-58
2022/11/11 06:01:24;;;;;;;0.55;0.20;;;;;;;;;;1836712;77;26372;-58
2022/11/11 06:03:52;;;;;;;0.08;0.08;;;;;;;;;;1839397;76;26364;-58
2022/11/11 06:06:19;;;;;;;0.05;0.05;;;;;;;;;;1836939;77;26283;-58
2022/11/11 06:08:46;;;;;;;0.20;0.20;;;;;;;;;;1821550;77;26278;-58
2022/11/11 06:11:14;;;;;;;0.17;0.17;;;;;;;;;;1826276;77;26393;-58
2022/11/11 06:13:41;;;;;;;0.20;0.13;;;;;;;;;;1840278;77;26255;-58
2022/11/11 06:16:08;;;;;;;0.15;0.15;;;;;;;;;;1834391;77;26267;-57
2022/11/11 06:18:36;;;;;;;0.20;0.20;;;;;;;;;;1836390;77;26742;-58
2022/11/11 06:21:04;;;;;;;0.80;0.10;;;;;;;;;;1840074;76;26279;-57
2022/11/11 06:23:31;;;;;;;0.10;0.10;;;;;;;;;;1832121;77;26412;-58
2022/11/11 06:26:13;;;;;;;0.23;0.13;;;;;;;;;;1834693;77;26283;-58
2022/11/11 06:28:48;;;;;;;0.57;0.15;;;;;;;;;;1820510;77;26354;-59
2022/11/11 06:31:17;;;;;;;1.00;0.23;;;;;;;;;;1844374;77;26310;-59
2022/11/11 06:33:45;;;;;;;0.30;0.30;;;;;;;;;;1843595;77;26263;-58
2022/11/11 06:36:14;;;;;;;2.83;0.30;;;;;;;;;;1813099;78;26260;-58
2022/11/11 06:38:41;;;;;;;0.42;0.37;;;;;;;;;;1807404;78;26318;-58
2022/11/11 06:41:11;;;;;;;0.30;0.30;;;;;;;;;;1808976;78;26854;-58
2022/11/11 06:43:39;;;;;;;0.47;0.35;;;;;;;;;;1804214;78;26289;-59
2022/11/11 06:46:07;;;;;;;1.62;0.33;;;;;;;;;;1834390;78;26748;-58
2022/11/11 06:48:34;;;;;;;0.55;0.30;;;;;;;;;;1826618;76;26244;-58
2022/11/11 06:51:03;;;;;;;1.07;0.20;;;;;;;;;;1822419;76;26283;-57
2022/11/11 06:53:30;;;;;;;2.20;0.30;;;;;;;;;;1822079;78;26294;-58
2022/11/11 06:55:58;;;;;;;0.28;0.20;;;;;;;;;;1828795;76;27648;-57
2022/11/11 06:58:25;;;;;;;1.15;0.37;;;;;;;;;;1827573;76;26283;-58
2022/11/11 07:00:52;;;;;;;0.20;0.20;;;;;;;;;;1829639;76;27367;-58
2022/11/11 07:03:20;;;;;;;0.30;0.25;;;;;;;;;;1832998;76;27559;-55
2022/11/11 07:05:48;;;;;;;2.85;0.60;;;;;;;;;;1837915;76;26264;-56
2022/11/11 07:08:17;;;;;;;1.17;0.40;;;;;;;;;;1825208;78;26228;-53
2022/11/11 07:10:46;;;;;;;0.30;0.30;;;;;;;;;;1831312;78;26260;-57
2022/11/11 07:13:14;;;;;;;3.65;0.30;;;;;;;;;;1834494;76;26267;-56
2022/11/11 07:15:43;;;;;;;1.00;0.50;;;;;;;;;;1820887;76;28264;-59
2022/11/11 07:18:11;;;;;;;1.67;0.45;;;;;;;;;;1820191;78;26382;-58
2022/11/11 07:20:38;;;;;;;0.85;0.50;;;;;;;;;;1825685;76;26813;-55
2022/11/11 07:23:06;;;;;;;1.90;0.50;;;;;;;;;;1812396;76;28252;-53
2022/11/11 07:25:33;;;;;;;0.42;0.42;;;;;;;;;;1822403;76;26264;-57
2022/11/11 07:28:01;;;;;;;1.47;0.30;;;;;;;;;;1825787;78;26275;-58
2022/11/11 07:30:28;;;;;;;0.40;0.40;;;;;;;;;;1828877;76;26319;-58
2022/11/11 07:32:56;;;;;;;2.33;0.50;;;;;;;;;;1832583;76;26661;-59
2022/11/11 07:35:23;;;;;;;0.50;0.50;;;;;;;;;;1827025;76;26330;-58
2022/11/11 07:37:51;;;;;;;1.52;0.50;;;;;;;;;;1836070;76;26333;-56
2022/11/11 07:40:18;;;;;;;1.85;0.42;;;;;;;;;;1827069;78;26288;-51
2022/11/11 07:42:46;;;;;;;2.83;0.62;;;;;;;;;;1821039;76;26874;-53
2022/11/11 07:45:14;;;;;;;0.80;0.47;;;;;;;;;;1831237;76;26303;-54
2022/11/11 07:47:44;;;;;;;2.25;0.37;;;;;;;;;;1810063;78;26675;-57
2022/11/11 07:50:12;;;;;;;2.33;0.50;;;;;;;;;;1833480;76;26342;-55
2022/11/11 07:52:40;;;;;;;2.83;0.42;;;;;;;;;;1836159;76;26334;-56
2022/11/11 07:55:08;;;;;;;3.25;0.62;;;;;;;;;;1843257;76;26540;-57
2022/11/11 07:57:36;;;;;;;0.50;0.50;;;;;;;;;;1843904;77;26362;-56
2022/11/11 08:00:04;;;;;;;0.88;0.40;;;;;;;;;;1842029;76;27465;-57
2022/11/11 08:02:32;;;;;;;1.87;0.45;;;;;;;;;;1845434;76;26840;-58
2022/11/11 08:04:59;;;;;;;1.27;0.40;;;;;;;;;;1839712;76;26256;-49
2022/11/11 08:07:26;;;;;;;0.57;0.53;;;;;;;;;;1831579;76;26283;-49
2022/11/11 08:09:54;;;;;;;0.30;0.30;;;;;;;;;;1835591;76;26284;-50
2022/11/11 08:15:07;;;;;;;1.22;0.60;;;;;;;;;;1833843;77;27004;-51
2022/11/11 08:17:42;;;;;;;2.95;0.50;;;;;;;;;;1827868;76;26287;-51
2022/11/11 08:20:08;;;;;;;2.42;0.57;;;;;;;;;;1829692;78;26256;-52
2022/11/11 08:22:36;;;;;;;0.47;0.40;;;;;;;;;;1839352;76;26338;-59
2022/11/11 08:25:04;;;;;;;0.40;0.40;;;;;;;;;;1835510;76;26567;-56
2022/11/11 08:27:31;;;;;;;5.05;0.50;;;;;;;;;;1866520;75;26276;-54
2022/11/11 08:29:58;;;;;;;0.82;0.50;;;;;;;;;;1863990;75;26236;-57
2022/11/11 08:32:26;;;;;;;1.32;0.50;;;;;;;;;;1867346;75;26256;-57
2022/11/11 08:34:53;;;;;;;0.85;0.35;;;;;;;;;;1869652;75;26326;-54
2022/11/11 08:37:21;;;;;;;0.75;0.40;;;;;;;;;;1874662;75;26236;-60
2022/11/11 08:39:48;;;;;;;0.90;0.42;;;;;;;;;;1868449;75;27330;-60
2022/11/11 08:42:15;;;;;;;0.35;0.35;;;;;;;;;;1870963;75;26728;-57
2022/11/11 08:44:42;;;;;;;1.55;0.40;;;;;;;;;;1882232;74;26276;-57
2022/11/11 08:47:10;;;;;;;0.55;0.50;;;;;;;;;;1880822;74;26348;-60
2022/11/11 08:49:37;;;;;;;1.27;0.50;;;;;;;;;;1886044;74;26273;-60
2022/11/11 08:52:04;;;;;;;0.40;0.40;;;;;;;;;;1887241;74;26437;-59
2022/11/11 08:54:32;;;;;;;1.98;0.50;;;;;;;;;;1889170;74;26294;-58
2022/11/11 08:57:00;;;;;;;0.30;0.30;;;;;;;;;;1884902;74;26241;-56
2022/11/11 08:59:27;;;;;;;4.03;0.40;;;;;;;;;;1886639;74;26672;-60
2022/11/11 09:01:54;;;;;;;1.27;0.50;;;;;;;;;;1890472;74;26303;-59
2022/11/11 09:04:21;;;;;;;0.50;0.50;;;;;;;;;;1883781;74;26314;-59
2022/11/11 09:06:49;;;;;;;1.65;0.50;;;;;;;;;;1885224;74;26252;-57
2022/11/11 09:09:16;;;;;;;0.50;0.50;;;;;;;;;;1881883;74;26258;-58
2022/11/11 09:11:44;;;;;;;0.80;0.50;;;;;;;;;;1890997;74;26309;-59
2022/11/11 09:14:11;;;;;;;0.50;0.50;;;;;;;;;;1884317;74;26302;-58
2022/11/11 09:16:38;;;;;;;0.55;0.45;;;;;;;;;;1887707;74;26372;-62
2022/11/11 09:19:05;;;;;;;0.50;0.50;;;;;;;;;;1885382;74;26263;-61
2022/11/11 09:21:33;;;;;;;0.40;0.40;;;;;;;;;;1886756;74;26298;-58
2022/11/11 09:24:00;;;;;;;3.17;0.45;;;;;;;;;;1885781;74;26289;-57
2022/11/11 09:26:27;;;;;;;0.78;0.47;;;;;;;;;;1883540;74;26909;-58
2022/11/11 09:28:55;;;;;;;0.45;0.45;;;;;;;;;;1889546;74;26769;-56
2022/11/11 09:31:22;;;;;;;0.60;0.50;;;;;;;;;;1887415;74;26736;-57
2022/11/11 09:33:50;;;;;;;0.30;0.30;;;;;;;;;;1891936;74;26305;-54
2022/11/11 09:36:18;;;;;;;0.47;0.47;;;;;;;;;;1890477;74;27380;-59
2022/11/11 09:38:45;;;;;;;0.65;0.30;;;;;;;;;;1887005;74;26241;-52
2022/11/11 09:41:14;;;;;;;0.37;0.37;;;;;;;;;;1888926;74;26318;-59
2022/11/11 09:43:43;;;;;;;0.50;0.50;;;;;;;;;;1885834;74;26319;-55
2022/11/11 09:46:12;;;;;;;2.45;0.70;;;;;;;;;;1871353;74;26419;-57
2022/11/11 09:48:53;;;;;;;2.72;0.60;;;;;;;;;;1873727;75;26183;-56
2022/11/11 09:51:25;;;;;;;1.15;0.70;;;;;;;;;;1867814;75;26742;-53
2022/11/11 09:53:54;;;;;;;0.60;0.60;;;;;;;;;;1867799;75;26580;-49
2022/11/11 09:56:23;;;;;;;0.47;0.47;;;;;;;;;;1871217;75;26330;-54
2022/11/11 09:58:52;;;;;;;0.93;0.70;;;;;;;;;;1874485;75;26236;-55
2022/11/11 10:01:24;;;;;;;0.60;0.60;;;;;;;;;;1873366;75;27360;-60
2022/11/11 10:03:53;;;;;;;1.47;0.60;;;;;;;;;;1870278;75;26391;-50
2022/11/11 10:06:22;;;;;;;0.70;0.70;;;;;;;;;;1857113;75;26235;-57
2022/11/11 10:09:09;;;;;;;0.88;0.57;;;;;;;;;;1867878;75;26359;-59
2022/11/11 10:11:37;;;;;;;1.05;0.70;;;;;;;;;;1804528;78;26251;-47
2022/11/11 10:14:05;;;;;;;0.78;0.62;;;;;;;;;;1804286;78;26419;-50
2022/11/11 10:16:34;;;;;;;0.55;0.53;;;;;;;;;;1833530;75;27266;-57
2022/11/11 10:19:19;;;;;;;0.50;0.50;;;;;;;;;;1866854;75;26302;-52
2022/11/11 10:21:48;;;;;;;0.70;0.70;;;;;;;;;;1867730;75;26345;-60
2022/11/11 10:24:23;;;;;;;0.60;0.60;;;;;;;;;;1868316;75;26818;-56
2022/11/11 10:26:50;;;;;;;0.60;0.50;;;;;;;;;;1809958;75;26746;-56
2022/11/11 10:29:19;;;;;;;0.82;0.82;;;;;;;;;;1874237;75;26399;-52
2022/11/11 10:31:56;;;;;;;1.22;0.93;;;;;;;;;;1871414;75;26320;-53
2022/11/11 10:34:25;;;;;;;0.62;0.60;;;;;;;;;;1873448;75;26273;-56
2022/11/11 10:36:56;;;;;;;2.17;0.72;;;;;;;;;;1866093;75;26312;-59
2022/11/11 10:39:40;;;;;;;1.00;0.85;;;;;;;;;;1873016;75;26286;-57
2022/11/11 10:42:09;;;;;;;4.65;1.07;;;;;;;;;;1870137;75;26318;-51
2022/11/11 10:44:38;;;;;;;4.78;1.20;;;;;;;;;;1870746;75;26274;-50
2022/11/11 10:47:09;;;;;;;1.45;0.70;;;;;;;;;;1868420;75;26534;-59
2022/11/11 10:49:41;;;;;;;6.22;1.00;;;;;;;;;;1871308;75;26292;-54
2022/11/11 10:52:29;;;;;;;5.70;1.10;;;;;;;;;;1865171;75;26988;-55
2022/11/11 10:55:00;;;;;;;3.47;0.80;;;;;;;;;;1868156;75;26293;-58
2022/11/11 10:57:35;;;;;;;2.55;0.80;;;;;;;;;;1870990;75;26285;-61
2022/11/11 11:00:05;;;;;;;2.70;0.70;;;;;;;;;;1873246;75;26295;-61
2022/11/11 11:02:33;;;;;;;4.78;1.12;;;;;;;;;;1867929;75;26755;-59
2022/11/11 11:05:02;;;;;;;1.25;0.60;;;;;;;;;;1868983;75;27467;-56
2022/11/11 11:07:31;;;;;;;1.95;0.95;;;;;;;;;;1880032;75;26751;-59
2022/11/11 11:10:00;;;;;;;2.05;0.80;;;;;;;;;;1868113;75;26778;-59
2022/11/11 11:12:31;;;;;;;0.75;0.75;;;;;;;;;;1869430;75;26286;-57
2022/11/11 11:15:00;;;;;;;2.17;0.70;;;;;;;;;;1873723;75;26925;-57
2022/11/11 11:17:32;;;;;;;0.42;0.42;;;;;;;;;;1874421;75;26376;-57
2022/11/11 11:20:10;;;;;;;1.07;0.70;;;;;;;;;;1867997;75;26736;-58
2022/11/11 11:22:45;;;;;;;0.70;0.70;;;;;;;;;;1872217;75;26318;-57
2022/11/11 11:25:13;;;;;;;1.50;0.53;;;;;;;;;;1873376;75;26338;-58
2022/11/11 11:27:40;;;;;;;0.50;0.50;;;;;;;;;;1871487;75;26249;-57
2022/11/11 11:30:14;;;;;;;1.15;0.50;;;;;;;;;;1873700;75;26367;-54
2022/11/11 11:32:45;;;;;;;2.45;0.70;;;;;;;;;;1870820;75;26735;-58
2022/11/11 11:35:14;;;;;;;0.57;0.55;;;;;;;;;;1870629;75;26841;-57
2022/11/11 11:37:49;;;;;;;0.90;0.55;;;;;;;;;;1870540;75;26562;-57
2022/11/11 11:40:16;;;;;;;2.90;0.78;;;;;;;;;;1868615;75;26856;-57
2022/11/11 11:42:43;;;;;;;3.85;0.95;;;;;;;;;;1873814;75;26423;-58
2022/11/11 11:45:21;;;;;;;0.50;0.50;;;;;;;;;;1874493;75;26294;-57
2022/11/11 11:47:56;;;;;;;0.50;0.50;;;;;;;;;;1877516;75;26326;-57
2022/11/11 11:50:41;;;;;;;1.37;0.70;;;;;;;;;;1875748;75;26267;-56
2022/11/11 11:53:27;;;;;;;0.60;0.60;;;;;;;;;;1875579;75;26322;-59
2022/11/11 11:55:56;;;;;;;0.42;0.42;;;;;;;;;;1878874;75;27176;-55
2022/11/11 11:58:28;;;;;;;0.70;0.50;;;;;;;;;;1866698;75;26745;-57
2022/11/11 12:01:15;;;;;;;2.25;0.60;;;;;;;;;;1881545;75;26818;-52
2022/11/11 12:03:56;;;;;;;0.60;0.60;;;;;;;;;;1871768;75;26279;-55
2022/11/11 12:06:33;;;;;;;1.07;0.50;;;;;;;;;;1877416;75;26332;-60
2022/11/11 12:09:02;;;;;;;0.47;0.47;;;;;;;;;;1873142;75;26343;-60
2022/11/11 12:11:34;;;;;;;0.68;0.35;;;;;;;;;;1874581;75;26316;-60
2022/11/11 12:14:19;;;;;;;0.98;0.40;;;;;;;;;;1871457;75;26314;-55
2022/11/11 12:16:54;;;;;;;0.90;0.35;;;;;;;;;;1871488;75;26816;-51
2022/11/11 12:19:38;;;;;;;0.40;0.40;;;;;;;;;;1875728;75;26314;-53
2022/11/11 12:22:24;;;;;;;0.55;0.53;;;;;;;;;;1875124;75;26315;-60
2022/11/11 12:25:09;;;;;;;1.75;0.30;;;;;;;;;;1871692;75;26296;-60
2022/11/11 12:27:40;;;;;;;1.75;0.60;;;;;;;;;;1868494;75;26271;-53
2022/11/11 12:30:12;;;;;;;0.65;0.40;;;;;;;;;;1871887;75;26947;-56
2022/11/11 12:32:41;;;;;;;1.15;0.65;;;;;;;;;;1876989;75;27280;-58
2022/11/11 12:35:10;;;;;;;0.28;0.28;;;;;;;;;;1880012;75;26247;-59
2022/11/11 12:37:54;;;;;;;1.55;0.55;;;;;;;;;;1868284;75;26327;-49
2022/11/11 12:40:29;;;;;;;0.30;0.30;;;;;;;;;;1871867;75;26285;-53
2022/11/11 12:43:14;;;;;;;0.40;0.40;;;;;;;;;;1878689;75;26322;-55
2022/11/11 12:45:49;;;;;;;0.40;0.40;;;;;;;;;;1882648;74;26270;-55
2022/11/11 12:48:30;;;;;;;0.42;0.42;;;;;;;;;;1886731;74;26260;-53
2022/11/11 12:51:16;;;;;;;0.42;0.42;;;;;;;;;;1884788;74;26358;-51
2022/11/11 12:53:44;;;;;;;0.40;0.40;;;;;;;;;;1884353;74;26268;-57
2022/11/11 12:56:30;;;;;;;0.45;0.45;;;;;;;;;;1882521;74;26267;-54
2022/11/11 12:59:17;;;;;;;0.40;0.40;;;;;;;;;;1890953;74;26679;-49
2022/11/11 13:01:48;;;;;;;0.40;0.40;;;;;;;;;;1882261;74;26732;-57
2022/11/11 13:04:20;;;;;;;0.30;0.30;;;;;;;;;;1889715;74;26301;-59
2022/11/11 13:06:55;;;;;;;0.47;0.47;;;;;;;;;;1882538;74;26349;-54
2022/11/11 13:09:36;;;;;;;0.70;0.70;;;;;;;;;;1883071;74;26364;-59
2022/11/11 13:12:22;;;;;;;0.42;0.42;;;;;;;;;;1884189;74;26364;-59
2022/11/11 13:14:51;;;;;;;0.30;0.30;;;;;;;;;;1888193;74;26729;-57
2022/11/11 13:17:18;;;;;;;0.30;0.30;;;;;;;;;;1884922;74;26278;-59
2022/11/11 13:19:50;;;;;;;0.20;0.20;;;;;;;;;;1887974;74;26341;-60
2022/11/11 13:22:25;;;;;;;0.50;0.50;;;;;;;;;;1820531;74;26783;-60
2022/11/11 13:24:53;;;;;;;0.53;0.30;;;;;;;;;;1891647;74;26316;-62
2022/11/11 13:27:22;;;;;;;0.40;0.40;;;;;;;;;;1885087;74;26323;-60
2022/11/11 13:30:02;;;;;;;0.40;0.40;;;;;;;;;;1888436;74;26276;-61
2022/11/11 13:32:34;;;;;;;0.57;0.40;;;;;;;;;;1885876;74;26310;-58
2022/11/11 13:35:01;;;;;;;0.50;0.40;;;;;;;;;;1882622;74;26319;-52
2022/11/11 13:37:32;;;;;;;0.40;0.40;;;;;;;;;;1887901;74;26296;-55
2022/11/11 13:40:03;;;;;;;0.40;0.40;;;;;;;;;;1881053;74;27567;-63
2022/11/11 13:42:32;;;;;;;0.20;0.20;;;;;;;;;;1885103;74;26601;-55
2022/11/11 13:45:01;;;;;;;0.62;0.42;;;;;;;;;;1884353;74;26279;-52
2022/11/11 13:47:36;;;;;;;1.17;0.35;;;;;;;;;;1877146;74;26339;-52
2022/11/11 13:50:11;;;;;;;0.40;0.40;;;;;;;;;;1870840;75;26891;-57
2022/11/11 13:52:40;;;;;;;0.30;0.30;;;;;;;;;;1873047;75;26370;-50
2022/11/11 13:55:11;;;;;;;0.40;0.40;;;;;;;;;;1867349;75;26321;-50
2022/11/11 13:57:46;;;;;;;1.05;0.30;;;;;;;;;;1875914;75;26307;-50
2022/11/11 14:00:20;;;;;;;0.40;0.40;;;;;;;;;;1870362;76;26322;-60
2022/11/11 14:02:48;;;;;;;0.20;0.20;;;;;;;;;;1865599;75;26743;-59
2022/11/11 14:05:16;;;;;;;0.23;0.23;;;;;;;;;;1870504;76;26361;-62
2022/11/11 14:07:48;;;;;;;0.35;0.35;;;;;;;;;;1870293;75;26358;-50
2022/11/11 14:10:17;;;;;;;0.40;0.40;;;;;;;;;;1873753;75;26267;-62
2022/11/11 14:12:46;;;;;;;0.37;0.37;;;;;;;;;;1872942;76;26299;-61
2022/11/11 14:15:31;;;;;;;0.30;0.30;;;;;;;;;;1875672;76;26284;-60
2022/11/11 14:17:59;;;;;;;0.23;0.23;;;;;;;;;;1868579;76;26299;-58
2022/11/11 14:20:33;;;;;;;0.25;0.25;;;;;;;;;;1876937;75;27148;-59
2022/11/11 14:23:19;;;;;;;0.53;0.40;;;;;;;;;;1878266;75;26297;-57
2022/11/11 14:25:47;;;;;;;0.40;0.40;;;;;;;;;;1869998;76;26263;-59
2022/11/11 14:28:26;;;;;;;0.37;0.20;;;;;;;;;;1877515;76;26259;-55
2022/11/11 14:30:54;;;;;;;0.30;0.30;;;;;;;;;;1872806;75;26327;-59
2022/11/11 14:33:23;;;;;;;0.40;0.40;;;;;;;;;;1867294;75;26817;-60
2022/11/11 14:35:58;;;;;;;0.65;0.40;;;;;;;;;;1869601;76;26614;-60
2022/11/11 14:38:36;;;;;;;0.30;0.20;;;;;;;;;;1862438;76;26253;-59
2022/11/11 14:41:21;;;;;;;0.57;0.47;;;;;;;;;;1873365;75;26263;-51
2022/11/11 14:43:48;;;;;;;0.30;0.30;;;;;;;;;;1870844;76;26351;-57
2022/11/11 14:46:15;;;;;;;0.40;0.40;;;;;;;;;;1871051;76;26265;-53
2022/11/11 14:48:50;;;;;;;0.30;0.30;;;;;;;;;;1871180;75;26338;-56
2022/11/11 14:51:35;;;;;;;0.50;0.35;;;;;;;;;;1864583;75;26347;-53
2022/11/11 14:54:04;;;;;;;0.30;0.30;;;;;;;;;;1868516;75;26356;-57
2022/11/11 14:56:32;;;;;;;0.30;0.30;;;;;;;;;;1873528;75;26773;-53
2022/11/11 14:59:01;;;;;;;0.30;0.30;;;;;;;;;;1869053;75;26292;-57
2022/11/11 15:01:28;;;;;;;0.30;0.30;;;;;;;;;;1867638;75;26297;-57
2022/11/11 15:03:56;;;;;;;0.30;0.30;;;;;;;;;;1876671;75;26717;-51
2022/11/11 15:06:24;;;;;;;0.30;0.30;;;;;;;;;;1866285;75;26310;-47
2022/11/11 15:09:10;;;;;;;1.52;0.47;;;;;;;;;;1869191;75;26779;-52
2022/11/11 15:11:39;;;;;;;0.42;0.42;;;;;;;;;;1864630;75;26345;-57
2022/11/11 15:14:10;;;;;;;0.30;0.30;;;;;;;;;;1866224;75;26304;-57
2022/11/11 15:16:39;;;;;;;0.30;0.30;;;;;;;;;;1865167;75;26306;-58
2022/11/11 15:19:17;;;;;;;0.25;0.25;;;;;;;;;;1872763;75;26354;-53
2022/11/11 15:21:52;;;;;;;0.30;0.30;;;;;;;;;;1871571;75;26764;-55
2022/11/11 15:24:30;;;;;;;0.20;0.20;;;;;;;;;;1869892;75;26794;-58
2022/11/11 15:26:59;;;;;;;0.17;0.17;;;;;;;;;;1870118;75;26301;-53
2022/11/11 15:29:30;;;;;;;0.53;0.30;;;;;;;;;;1873076;75;26741;-51
2022/11/11 15:32:16;;;;;;;0.23;0.20;;;;;;;;;;1808620;77;26318;-55
2022/11/11 15:35:02;;;;;;;0.30;0.30;;;;;;;;;;1867420;75;26268;-52
2022/11/11 15:37:30;;;;;;;0.40;0.40;;;;;;;;;;1866415;75;26300;-51
2022/11/11 15:39:57;;;;;;;0.30;0.30;;;;;;;;;;1870016;75;26319;-49
2022/11/11 15:42:26;;;;;;;0.30;0.30;;;;;;;;;;1873132;75;26887;-57
2022/11/11 15:44:53;;;;;;;0.30;0.30;;;;;;;;;;1873649;75;27859;-57
2022/11/11 15:47:24;;;;;;;0.20;0.20;;;;;;;;;;1869223;75;26307;-56
2022/11/11 15:49:51;;;;;;;0.30;0.30;;;;;;;;;;1866253;76;26439;-52
2022/11/11 15:52:29;;;;;;;0.30;0.30;;;;;;;;;;1867685;76;26768;-54
2022/11/11 15:54:57;;;;;;;0.20;0.20;;;;;;;;;;1863661;76;26301;-47
2022/11/11 15:57:31;;;;;;;0.40;0.40;;;;;;;;;;1869602;76;26263;-61
2022/11/11 16:00:00;;;;;;;0.30;0.30;;;;;;;;;;1862434;75;26754;-52
2022/11/11 16:02:29;;;;;;;0.37;0.37;;;;;;;;;;1864338;76;26332;-57
2022/11/11 16:05:00;;;;;;;0.23;0.23;;;;;;;;;;1864010;76;26319;-58
2022/11/11 16:07:32;;;;;;;0.28;0.28;;;;;;;;;;1864223;75;26399;-53
2022/11/11 16:10:01;;;;;;;0.20;0.20;;;;;;;;;;1863388;76;26311;-49
2022/11/11 16:12:29;;;;;;;1.42;0.30;;;;;;;;;;1866979;76;26335;-53
2022/11/11 16:14:57;;;;;;;0.30;0.30;;;;;;;;;;1865774;76;26271;-51
2022/11/11 16:17:27;;;;;;;1.45;0.40;;;;;;;;;;1868600;76;26371;-52
2022/11/11 16:19:54;;;;;;;0.30;0.30;;;;;;;;;;1865905;76;26845;-63
2022/11/11 16:22:23;;;;;;;1.75;0.50;;;;;;;;;;1865677;75;26321;-50
2022/11/11 16:24:50;;;;;;;0.70;0.40;;;;;;;;;;1863637;76;26340;-52
2022/11/11 16:27:19;;;;;;;0.93;0.53;;;;;;;;;;1870463;76;26279;-58
2022/11/11 16:29:46;;;;;;;0.47;0.47;;;;;;;;;;1865933;76;26310;-50